createdAt,value
2022-12-01T00:01:06.619Z,101761.47
2022-12-01T00:03:35.029Z,101761.47
2022-12-01T00:06:11.555Z,101757.94
2022-12-01T00:08:38.250Z,101760.50
2022-12-01T00:11:07.527Z,101761.59
2022-12-01T00:13:34.930Z,101754.53
2022-12-01T00:16:16.408Z,101752.50
2022-12-01T00:18:43.891Z,101755.31
2022-12-01T00:21:15.093Z,101753.84
2022-12-01T00:23:47.312Z,101755.25
2022-12-01T00:26:14.953Z,101746.78
2022-12-01T00:28:41.751Z,101747.06
2022-12-01T00:31:12.449Z,101744.59
2022-12-01T00:33:39.701Z,101754.50
2022-12-01T00:36:07.454Z,101754.63
2022-12-01T00:38:34.534Z,101748.56
2022-12-01T00:41:01.575Z,101744.63
2022-12-01T00:43:28.178Z,101752.00
2022-12-01T00:45:56.205Z,101755.78
2022-12-01T00:48:23.189Z,101747.88
2022-12-01T00:50:54.328Z,101757.69
2022-12-01T00:53:22.194Z,101753.38
2022-12-01T00:55:49.317Z,101758.28
2022-12-01T00:58:15.938Z,101751.47
2022-12-01T01:00:42.842Z,101754.34
2022-12-01T01:03:10.422Z,101758.72
2022-12-01T01:05:41.357Z,101751.75
2022-12-01T01:08:13.028Z,101761.50
2022-12-01T01:10:40.994Z,101763.22
2022-12-01T01:13:07.718Z,101758.09
2022-12-01T01:15:34.907Z,101761.94
2022-12-01T01:18:02.312Z,101767.34
2022-12-01T01:20:29.234Z,101767.69
2022-12-01T01:22:56.122Z,101768.59
2022-12-01T01:25:22.980Z,101768.41
2022-12-01T01:27:49.778Z,101772.78
2022-12-01T01:30:16.792Z,101776.88
2022-12-01T01:32:43.438Z,101773.66
2022-12-01T01:35:09.988Z,101781.56
2022-12-01T01:37:36.545Z,101785.13
2022-12-01T01:40:03.281Z,101780.25
2022-12-01T01:42:30.158Z,101780.84
2022-12-01T01:44:58.564Z,101783.28
2022-12-01T01:47:33.024Z,101771.88
2022-12-01T01:50:06.385Z,101776.94
2022-12-01T01:52:35.909Z,101786.16
2022-12-01T01:55:02.855Z,101787.16
2022-12-01T01:57:32.041Z,101788.19
2022-12-01T02:00:09.699Z,101784.84
2022-12-01T02:02:44.578Z,101783.19
2022-12-01T02:05:17.105Z,101793.88
2022-12-01T02:07:45.333Z,101785.44
2022-12-01T02:10:14.861Z,101783.72
2022-12-01T02:13:08.636Z,101773.53
2022-12-01T02:15:38.681Z,101777.38
2022-12-01T02:18:11.148Z,101782.19
2022-12-01T02:20:57.166Z,101780.50
2022-12-01T02:23:26.390Z,101780.78
2022-12-01T02:26:43.597Z,101778.31
2022-12-01T02:29:30.110Z,101781.72
2022-12-01T02:32:18.185Z,101779.09
2022-12-01T02:35:03.559Z,101784.16
2022-12-01T02:37:38.040Z,101772.28
2022-12-01T02:40:44.690Z,101772.13
2022-12-01T02:43:19.338Z,101772.06
2022-12-01T02:45:51.913Z,101779.75
2022-12-01T02:48:37.976Z,101763.66
2022-12-01T02:51:10.305Z,101772.22
2022-12-01T02:53:36.913Z,101769.19
2022-12-01T02:56:07.761Z,101762.69
2022-12-01T02:58:34.287Z,101767.25
2022-12-01T03:01:18.231Z,101771.38
2022-12-01T03:03:53.978Z,101771.97
2022-12-01T03:06:44.224Z,101774.84
2022-12-01T03:09:25.318Z,101773.41
2022-12-01T03:12:10.495Z,101775.78
2022-12-01T03:14:46.602Z,101778.88
2022-12-01T03:17:24.972Z,101782.09
2022-12-01T03:20:24.932Z,101774.25
2022-12-01T03:22:59.227Z,101778.50
2022-12-01T03:25:28.151Z,101784.88
2022-12-01T03:28:20.169Z,101774.91
2022-12-01T03:30:46.315Z,101776.38
2022-12-01T03:33:21.225Z,101770.75
2022-12-01T03:35:56.020Z,101777.97
2022-12-01T03:38:29.249Z,101775.28
2022-12-01T03:41:05.336Z,101776.09
2022-12-01T03:43:38.326Z,101779.13
2022-12-01T03:46:17.697Z,101782.28
2022-12-01T03:48:45.199Z,101780.56
2022-12-01T03:51:37.993Z,101780.16
2022-12-01T03:54:27.003Z,101787.97
2022-12-01T03:56:59.698Z,101785.28
2022-12-01T03:59:28.077Z,101785.22
2022-12-01T04:01:54.985Z,101786.81
2022-12-01T04:04:21.830Z,101788.44
2022-12-01T04:06:50.547Z,101789.91
2022-12-01T04:09:17.299Z,101782.47
2022-12-01T04:12:02.627Z,101785.34
2022-12-01T04:14:30.142Z,101785.28
2022-12-01T04:16:56.713Z,101778.94
2022-12-01T04:19:23.321Z,101782.69
2022-12-01T04:21:49.846Z,101785.44
2022-12-01T04:24:16.472Z,101785.34
2022-12-01T04:26:43.384Z,101798.50
2022-12-01T04:29:10.861Z,101795.00
2022-12-01T04:31:37.561Z,101794.13
2022-12-01T04:34:04.818Z,101781.22
2022-12-01T04:36:33.581Z,101785.78
2022-12-01T04:39:01.299Z,101775.19
2022-12-01T04:41:27.987Z,101777.22
2022-12-01T04:43:55.489Z,101782.69
2022-12-01T04:46:22.928Z,101779.72
2022-12-01T04:48:49.924Z,101786.50
2022-12-01T04:51:16.699Z,101779.53
2022-12-01T04:53:43.258Z,101780.47
2022-12-01T04:56:09.901Z,101786.47
2022-12-01T04:58:39.979Z,101775.88
2022-12-01T05:01:13.379Z,101777.56
2022-12-01T05:03:43.253Z,101780.25
2022-12-01T05:06:12.813Z,101774.28
2022-12-01T05:08:39.669Z,101776.38
2022-12-01T05:11:07.876Z,101772.44
2022-12-01T05:13:39.798Z,101782.06
2022-12-01T05:16:08.013Z,101783.19
2022-12-01T05:18:35.132Z,101781.28
2022-12-01T05:21:03.832Z,101784.00
2022-12-01T05:23:33.173Z,101783.19
2022-12-01T05:26:00.917Z,101786.63
2022-12-01T05:28:28.166Z,101775.06
2022-12-01T05:30:55.251Z,101784.53
2022-12-01T05:33:23.251Z,101779.03
2022-12-01T05:35:50.677Z,101779.78
2022-12-01T05:38:18.121Z,101785.00
2022-12-01T05:40:55.496Z,101794.16
2022-12-01T05:43:28.661Z,101794.78
2022-12-01T05:45:56.977Z,101789.00
2022-12-01T05:48:23.881Z,101778.78
2022-12-01T05:50:50.520Z,101793.09
2022-12-01T05:53:18.328Z,101790.63
2022-12-01T05:55:45.243Z,101797.44
2022-12-01T05:58:13.185Z,101800.81
2022-12-01T06:00:45.731Z,101798.16
2022-12-01T06:03:13.562Z,101804.41
2022-12-01T06:05:40.836Z,101800.22
2022-12-01T06:08:08.347Z,101795.34
2022-12-01T06:10:35.339Z,101800.22
2022-12-01T06:13:02.393Z,101800.72
2022-12-01T06:15:29.001Z,101805.34
2022-12-01T06:17:59.077Z,101796.56
2022-12-01T06:20:26.175Z,101797.59
2022-12-01T06:22:52.838Z,101806.06
2022-12-01T06:25:19.488Z,101809.38
2022-12-01T06:27:46.916Z,101807.75
2022-12-01T06:30:13.699Z,101804.34
2022-12-01T06:32:40.171Z,101814.88
2022-12-01T06:35:07.134Z,101813.88
2022-12-01T06:37:33.729Z,101808.22
2022-12-01T06:40:00.318Z,101809.50
2022-12-01T06:42:29.846Z,101806.47
2022-12-01T06:44:56.389Z,101816.31
2022-12-01T06:47:22.940Z,101812.34
2022-12-01T06:49:49.691Z,101818.91
2022-12-01T06:52:16.454Z,101814.69
2022-12-01T06:54:43.194Z,101817.63
2022-12-01T06:57:10.009Z,101820.81
2022-12-01T06:59:36.630Z,101813.06
2022-12-01T07:02:03.734Z,101813.94
2022-12-01T07:04:30.920Z,101808.59
2022-12-01T07:06:57.954Z,101809.13
2022-12-01T07:09:24.527Z,101822.47
2022-12-01T07:11:51.110Z,101815.84
2022-12-01T07:14:23.841Z,101810.13
2022-12-01T07:16:51.012Z,101822.94
2022-12-01T07:19:17.872Z,101821.91
2022-12-01T07:21:44.458Z,101832.22
2022-12-01T07:24:12.578Z,101834.06
2022-12-01T07:26:41.054Z,101834.50
2022-12-01T07:29:09.123Z,101838.97
2022-12-01T07:31:36.977Z,101838.44
2022-12-01T07:34:04.466Z,101832.22
2022-12-01T07:36:31.528Z,101834.81
2022-12-01T07:38:58.312Z,101836.81
2022-12-01T07:41:24.928Z,101833.13
2022-12-01T07:43:51.516Z,101836.56
2022-12-01T07:46:23.787Z,101836.63
2022-12-01T07:48:53.000Z,101840.84
2022-12-01T07:51:21.295Z,101834.63
2022-12-01T07:53:51.950Z,101832.66
2022-12-01T07:56:20.544Z,101840.56
2022-12-01T07:58:47.059Z,101836.69
2022-12-01T08:01:21.878Z,101842.13
2022-12-01T08:03:53.538Z,101845.19
2022-12-01T08:06:20.580Z,101845.75
2022-12-01T08:08:47.557Z,101840.34
2022-12-01T08:11:23.160Z,101842.06
2022-12-01T08:13:51.000Z,101844.44
2022-12-01T08:16:19.875Z,101834.16
2022-12-01T08:18:47.214Z,101849.91
2022-12-01T08:21:18.971Z,101847.94
2022-12-01T08:23:45.574Z,101850.75
2022-12-01T08:26:15.942Z,101850.09
2022-12-01T08:28:43.521Z,101862.97
2022-12-01T08:31:16.708Z,101869.03
2022-12-01T08:33:43.409Z,101869.91
2022-12-01T08:36:10.196Z,101870.41
2022-12-01T08:38:37.314Z,101874.47
2022-12-01T08:41:08.677Z,101871.44
2022-12-01T08:46:34.712Z,101877.28
2022-12-01T08:49:02.696Z,101875.91
2022-12-01T08:51:29.276Z,101871.81
2022-12-01T08:53:58.311Z,101873.50
2022-12-01T08:56:32.749Z,101874.06
2022-12-01T08:58:59.711Z,101873.41
2022-12-01T09:01:27.101Z,101867.19
2022-12-01T09:04:06.177Z,101869.00
2022-12-01T09:06:38.303Z,101865.47
2022-12-01T09:09:05.450Z,101872.44
2022-12-01T09:11:32.629Z,101869.25
2022-12-01T09:14:00.554Z,101875.44
2022-12-01T09:16:27.422Z,101870.97
2022-12-01T09:18:54.921Z,101880.84
2022-12-01T09:21:24.817Z,101873.75
2022-12-01T09:23:53.629Z,101885.28
2022-12-01T09:26:20.550Z,101887.13
2022-12-01T09:28:48.711Z,101880.41
2022-12-01T09:31:16.904Z,101890.66
2022-12-01T09:33:44.602Z,101884.44
2022-12-01T09:36:11.337Z,101887.38
2022-12-01T09:38:39.289Z,101890.00
2022-12-01T09:41:11.811Z,101893.50
2022-12-01T09:44:05.878Z,101889.53
2022-12-01T09:46:40.642Z,101891.50
2022-12-01T09:49:36.761Z,101886.31
2022-12-01T09:52:03.906Z,101888.53
2022-12-01T09:54:30.443Z,101887.72
2022-12-01T09:56:59.423Z,101888.91
2022-12-01T09:59:32.637Z,101880.00
2022-12-01T10:02:02.564Z,101886.00
2022-12-01T10:04:36.112Z,101887.44
2022-12-01T10:07:29.479Z,101892.75
2022-12-01T10:10:12.058Z,101883.34
2022-12-01T10:12:42.203Z,101880.13
2022-12-01T10:15:36.745Z,101887.66
2022-12-01T10:18:25.305Z,101875.94
2022-12-01T10:21:08.818Z,101878.47
2022-12-01T10:23:57.915Z,101874.84
2022-12-01T10:26:32.079Z,101883.09
2022-12-01T10:29:16.374Z,101866.69
2022-12-01T10:31:54.053Z,101861.03
2022-12-01T10:34:22.649Z,101865.56
2022-12-01T10:36:49.941Z,101861.50
2022-12-01T10:39:28.695Z,101857.34
2022-12-01T10:42:05.682Z,101850.34
2022-12-01T10:44:33.047Z,101860.09
2022-12-01T10:46:59.881Z,101851.56
2022-12-01T10:49:40.992Z,101850.44
2022-12-01T10:52:08.454Z,101843.94
2022-12-01T10:54:38.171Z,101848.34
2022-12-01T10:57:06.753Z,101846.88
2022-12-01T10:59:44.414Z,101855.84
2022-12-01T11:02:26.671Z,101854.09
2022-12-01T11:04:54.871Z,101849.00
2022-12-01T11:07:41.641Z,101848.53
2022-12-01T11:10:15.341Z,101854.72
2022-12-01T11:12:44.681Z,101845.16
2022-12-01T11:15:21.358Z,101853.19
2022-12-01T11:17:48.604Z,101857.00
2022-12-01T11:20:35.801Z,101848.22
2022-12-01T11:23:25.597Z,101855.09
2022-12-01T11:26:00.253Z,101846.78
2022-12-01T11:28:27.764Z,101838.16
2022-12-01T11:30:58.630Z,101847.91
2022-12-01T11:33:26.186Z,101842.38
2022-12-01T11:35:52.843Z,101839.25
2022-12-01T11:38:30.947Z,101844.31
2022-12-01T11:40:58.405Z,101837.31
2022-12-01T11:43:33.220Z,101844.00
2022-12-01T11:46:03.979Z,101834.19
2022-12-01T11:48:34.449Z,101842.81
2022-12-01T11:51:09.051Z,101838.09
2022-12-01T11:53:38.786Z,101838.31
2022-12-01T11:56:28.734Z,101835.59
2022-12-01T11:59:10.384Z,101830.72
2022-12-01T12:01:55.304Z,101833.63
2022-12-01T12:04:38.704Z,101830.66
2022-12-01T12:07:42.372Z,101829.66
2022-12-01T12:10:30.413Z,101828.59
2022-12-01T12:13:15.088Z,101823.81
2022-12-01T12:15:56.918Z,101818.66
2022-12-01T12:18:35.733Z,101820.78
2022-12-01T12:21:31.642Z,101819.19
2022-12-01T12:24:16.297Z,101820.47
2022-12-01T12:26:53.298Z,101821.84
2022-12-01T12:29:28.707Z,101820.25
2022-12-01T12:32:13.759Z,101822.81
2022-12-01T12:34:54.837Z,101815.13
2022-12-01T12:38:01.317Z,101817.69
2022-12-01T12:40:56.381Z,101814.56
2022-12-01T12:43:52.026Z,101813.06
2022-12-01T12:46:37.281Z,101804.59
2022-12-01T12:49:19.283Z,101803.91
2022-12-01T12:51:52.787Z,101793.91
2022-12-01T12:54:33.627Z,101792.25
2022-12-01T12:57:05.553Z,101792.81
2022-12-01T12:59:48.464Z,101796.97
2022-12-01T13:02:27.144Z,101799.59
2022-12-01T13:05:25.883Z,101801.03
2022-12-01T13:08:11.235Z,101804.56
2022-12-01T13:10:49.774Z,101800.84
2022-12-01T13:13:25.813Z,101794.56
2022-12-01T13:15:55.666Z,101798.41
2022-12-01T13:18:22.171Z,101793.66
2022-12-01T13:20:52.129Z,101788.88
2022-12-01T13:23:21.739Z,101794.25
2022-12-01T13:25:52.796Z,101790.69
2022-12-01T13:28:29.018Z,101788.50
2022-12-01T13:30:59.735Z,101777.38
2022-12-01T13:33:26.890Z,101775.56
2022-12-01T13:36:22.717Z,101780.34
2022-12-01T13:38:43.306Z,101774.44
2022-12-01T13:41:22.841Z,101766.22
2022-12-01T13:44:22.508Z,101758.81
2022-12-01T13:47:21.179Z,101769.13
2022-12-01T13:49:50.369Z,101767.94
2022-12-01T13:52:22.968Z,101769.69
2022-12-01T13:55:20.353Z,101769.22
2022-12-01T13:58:14.001Z,101770.78
2022-12-01T14:00:42.947Z,101770.00
2022-12-01T14:03:12.688Z,101766.41
2022-12-01T14:05:39.293Z,101777.06
2022-12-01T14:08:23.519Z,101770.97
2022-12-01T14:11:07.565Z,101770.00
2022-12-01T14:13:55.164Z,101778.31
2022-12-01T14:16:23.079Z,101772.56
2022-12-01T14:18:57.515Z,101767.94
2022-12-01T14:21:43.534Z,101772.44
2022-12-01T14:24:22.166Z,101762.06
2022-12-01T14:26:49.577Z,101776.16
2022-12-01T14:29:33.032Z,101777.41
2022-12-01T14:32:20.182Z,101772.78
2022-12-01T14:34:51.743Z,101781.31
2022-12-01T14:37:25.476Z,101779.75
2022-12-01T14:40:17.584Z,101780.13
2022-12-01T14:43:07.249Z,101782.44
2022-12-01T14:45:40.300Z,101787.97
2022-12-01T14:48:15.341Z,101785.28
2022-12-01T14:50:52.025Z,101779.66
2022-12-01T14:53:27.035Z,101780.13
2022-12-01T14:55:57.185Z,101773.75
2022-12-01T14:58:28.278Z,101777.81
2022-12-01T15:01:07.157Z,101775.50
2022-12-01T15:03:41.609Z,101773.69
2022-12-01T15:06:09.054Z,101777.13
2022-12-01T15:08:49.184Z,101777.59
2022-12-01T15:11:26.019Z,101758.34
2022-12-01T15:13:57.512Z,101765.34
2022-12-01T15:16:40.708Z,101772.53
2022-12-01T15:19:30.481Z,101770.63
2022-12-01T15:21:58.387Z,101786.22
2022-12-01T15:24:27.701Z,101779.84
2022-12-01T15:27:02.113Z,101792.84
2022-12-01T15:29:42.904Z,101797.81
2022-12-01T15:32:15.999Z,101803.16
2022-12-01T15:34:47.956Z,101800.78
2022-12-01T15:37:18.613Z,101807.91
2022-12-01T15:39:49.310Z,101793.38
2022-12-01T15:42:31.846Z,101793.94
2022-12-01T15:45:20.232Z,101790.97
2022-12-01T15:47:50.981Z,101788.78
2022-12-01T15:50:37.691Z,101799.34
2022-12-01T15:53:26.371Z,101790.31
2022-12-01T15:55:58.810Z,101785.00
2022-12-01T15:58:36.202Z,101783.56
2022-12-01T16:01:12.704Z,101780.50
2022-12-01T16:03:53.928Z,101780.72
2022-12-01T16:06:25.460Z,101780.63
2022-12-01T16:08:59.324Z,101774.16
2022-12-01T16:11:27.275Z,101768.44
2022-12-01T16:14:22.039Z,101765.34
2022-12-01T16:16:49.838Z,101766.31
2022-12-01T16:19:16.640Z,101763.06
2022-12-01T16:21:52.884Z,101769.19
2022-12-01T16:24:28.321Z,101767.66
2022-12-01T16:27:03.064Z,101766.50
2022-12-01T16:29:34.916Z,101772.03
2022-12-01T16:32:22.361Z,101771.38
2022-12-01T16:34:53.159Z,101771.81
2022-12-01T16:37:21.530Z,101779.22
2022-12-01T16:39:48.350Z,101778.94
2022-12-01T16:42:17.442Z,101777.28
2022-12-01T16:44:46.320Z,101768.91
2022-12-01T16:47:22.764Z,101768.38
2022-12-01T16:49:50.733Z,101775.31
2022-12-01T16:55:05.041Z,101784.81
2022-12-01T16:57:31.546Z,101779.78
2022-12-01T16:59:58.097Z,101776.72
2022-12-01T17:02:24.665Z,101777.00
2022-12-01T17:04:51.733Z,101784.78
2022-12-01T17:07:18.412Z,101790.19
2022-12-01T17:09:45.082Z,101783.59
2022-12-01T17:12:11.565Z,101782.78
2022-12-01T17:14:38.119Z,101792.81
2022-12-01T17:17:04.717Z,101792.81
2022-12-01T17:19:31.306Z,101789.13
2022-12-01T17:21:58.092Z,101791.28
2022-12-01T17:24:25.835Z,101791.69
2022-12-01T17:26:52.770Z,101798.31
2022-12-01T17:29:19.370Z,101799.13
2022-12-01T17:31:45.872Z,101804.38
2022-12-01T17:34:12.456Z,101798.78
2022-12-01T17:36:39.014Z,101808.97
2022-12-01T17:39:05.975Z,101815.78
2022-12-01T17:41:35.495Z,101812.63
2022-12-01T17:44:03.842Z,101816.94
2022-12-01T17:46:31.070Z,101820.97
2022-12-01T17:48:58.326Z,101814.91
2022-12-01T17:51:24.946Z,101806.84
2022-12-01T17:53:53.188Z,101816.19
2022-12-01T17:56:19.839Z,101819.84
2022-12-01T17:58:49.221Z,101825.72
2022-12-01T18:01:18.221Z,101821.28
2022-12-01T18:03:45.121Z,101819.84
2022-12-01T18:06:12.673Z,101825.63
2022-12-01T18:08:40.502Z,101825.88
2022-12-01T18:11:12.541Z,101820.97
2022-12-01T18:13:43.871Z,101813.34
2022-12-01T18:16:14.875Z,101818.97
2022-12-01T18:18:41.880Z,101816.25
2022-12-01T18:21:10.942Z,101821.00
2022-12-01T18:23:37.793Z,101818.97
2022-12-01T18:26:15.674Z,101822.28
2022-12-01T18:28:44.124Z,101813.31
2022-12-01T18:31:14.267Z,101819.84
2022-12-01T18:33:43.148Z,101824.00
2022-12-01T18:36:13.392Z,101819.13
2022-12-01T18:38:40.595Z,101807.16
2022-12-01T18:41:07.850Z,101817.25
2022-12-01T18:43:34.677Z,101819.56
2022-12-01T18:46:03.197Z,101820.41
2022-12-01T18:48:30.267Z,101818.13
2022-12-01T18:51:00.689Z,101813.91
2022-12-01T18:53:27.270Z,101823.31
2022-12-01T18:55:53.777Z,101824.00
2022-12-01T18:58:20.359Z,101817.25
2022-12-01T19:00:47.467Z,101818.69
2022-12-01T19:03:14.226Z,101817.25
2022-12-01T19:05:41.205Z,101821.31
2022-12-01T19:08:08.036Z,101817.72
2022-12-01T19:10:34.643Z,101816.53
2022-12-01T19:13:01.493Z,101811.22
2022-12-01T19:15:28.791Z,101809.03
2022-12-01T19:17:55.888Z,101806.88
2022-12-01T19:20:22.531Z,101810.31
2022-12-01T19:22:49.178Z,101807.47
2022-12-01T19:25:15.909Z,101810.78
2022-12-01T19:27:42.626Z,101807.47
2022-12-01T19:30:09.706Z,101808.31
2022-12-01T19:32:36.587Z,101803.28
2022-12-01T19:35:03.424Z,101806.03
2022-12-01T19:37:30.112Z,101806.44
2022-12-01T19:39:56.589Z,101806.16
2022-12-01T19:42:23.144Z,101807.19
2022-12-01T19:44:50.022Z,101795.94
2022-12-01T19:47:21.989Z,101803.28
2022-12-01T19:49:49.659Z,101792.06
2022-12-01T19:52:16.245Z,101803.84
2022-12-01T19:54:42.980Z,101796.34
2022-12-01T19:57:09.554Z,101796.22
2022-12-01T19:59:36.545Z,101796.19
2022-12-01T20:02:03.098Z,101801.53
2022-12-01T20:04:29.723Z,101797.66
2022-12-01T20:06:56.261Z,101796.50
2022-12-01T20:09:22.897Z,101802.84
2022-12-01T20:11:49.525Z,101798.84
2022-12-01T20:14:16.262Z,101800.84
2022-12-01T20:16:42.904Z,101805.00
2022-12-01T20:19:10.241Z,101797.81
2022-12-01T20:21:43.106Z,101806.88
2022-12-01T20:24:15.412Z,101796.09
2022-12-01T20:26:52.893Z,101803.41
2022-12-01T20:29:26.297Z,101804.16
2022-12-01T20:31:55.208Z,101806.44
2022-12-01T20:34:27.484Z,101803.69
2022-12-01T20:36:55.627Z,101808.59
2022-12-01T20:39:22.736Z,101807.47
2022-12-01T20:41:49.568Z,101809.19
2022-12-01T20:44:17.045Z,101810.03
2022-12-01T20:46:47.936Z,101814.53
2022-12-01T20:49:16.670Z,101806.88
2022-12-01T20:51:43.431Z,101796.25
2022-12-01T20:54:29.781Z,101798.81
2022-12-01T20:56:57.638Z,101795.66
2022-12-01T20:59:24.332Z,101789.31
2022-12-01T21:01:50.982Z,101797.13
2022-12-01T21:04:17.613Z,101789.75
2022-12-01T21:06:44.301Z,101791.91
2022-12-01T21:09:12.293Z,101789.00
2022-12-01T21:12:04.264Z,101788.44
2022-12-01T21:14:37.762Z,101792.50
2022-12-01T21:17:19.764Z,101789.19
2022-12-01T21:19:57.112Z,101784.13
2022-12-01T21:22:24.770Z,101783.69
2022-12-01T21:24:51.931Z,101783.53
2022-12-01T21:27:18.767Z,101781.22
2022-12-01T21:29:47.668Z,101779.06
2022-12-01T21:32:22.559Z,101784.69
2022-12-01T21:34:49.925Z,101780.09
2022-12-01T21:37:24.661Z,101780.06
2022-12-01T21:39:53.120Z,101770.28
2022-12-01T21:42:22.633Z,101767.13
2022-12-01T21:44:49.732Z,101770.44
2022-12-01T21:47:23.697Z,101770.59
2022-12-01T21:49:56.733Z,101773.47
2022-12-01T21:52:39.056Z,101768.09
2022-12-01T21:55:32.931Z,101767.69
2022-12-01T21:57:59.992Z,101757.75
2022-12-01T22:00:32.906Z,101773.13
2022-12-01T22:03:09.142Z,101765.31
2022-12-01T22:05:56.156Z,101769.47
2022-12-01T22:08:34.422Z,101760.84
2022-12-01T22:11:21.865Z,101758.16
2022-12-01T22:14:10.301Z,101750.69
2022-12-01T22:16:44.063Z,101748.09
2022-12-01T22:19:16.657Z,101747.41
2022-12-01T22:21:49.110Z,101747.69
2022-12-01T22:24:26.042Z,101763.66
2022-12-01T22:27:27.108Z,101757.91
2022-12-01T22:30:21.029Z,101748.56
2022-12-01T22:32:57.011Z,101746.69
2022-12-01T22:35:32.353Z,101740.34
2022-12-01T22:38:11.183Z,101747.41
2022-12-01T22:40:51.532Z,101742.06
2022-12-01T22:43:18.215Z,101746.97
2022-12-01T22:45:47.749Z,101745.53
2022-12-01T22:48:40.220Z,101742.34
2022-12-01T22:51:12.890Z,101741.78
2022-12-01T22:53:41.095Z,101742.19
2022-12-01T22:56:21.252Z,101739.03
2022-12-01T22:58:47.957Z,101735.16
2022-12-01T23:01:33.253Z,101734.84
2022-12-01T23:04:21.665Z,101729.66
2022-12-01T23:06:53.714Z,101733.91
2022-12-01T23:09:21.973Z,101731.63
2022-12-01T23:12:01.697Z,101729.63
2022-12-01T23:14:28.818Z,101733.06
2022-12-01T23:17:10.897Z,101732.50
2022-12-01T23:19:37.556Z,101736.50
2022-12-01T23:22:04.137Z,101738.91
2022-12-01T23:24:33.921Z,101735.63
2022-12-01T23:27:01.015Z,101732.44
2022-12-01T23:29:27.919Z,101726.22
2022-12-01T23:31:54.522Z,101724.63
2022-12-01T23:34:21.081Z,101719.13
2022-12-01T23:36:50.039Z,101722.44
2022-12-01T23:39:18.683Z,101720.63
2022-12-01T23:41:48.612Z,101718.28
2022-12-01T23:44:22.972Z,101716.81
2022-12-01T23:46:52.693Z,101716.19
2022-12-01T23:49:22.370Z,101712.06
2022-12-01T23:51:54.636Z,101716.56
2022-12-01T23:54:31.440Z,101710.28
2022-12-01T23:57:01.515Z,101710.81
2022-12-01T23:59:29.793Z,101691.84
